Time;durP1;ratioP1;P1;durP2;ratioP2;P2;SDS_P1;SDS_P2;PMS_P1;PMS_P2;Temp;Humidity;BMP_temperature;BMP_pressure;BME280_temperature;BME280_humidity;BME280_pressure;Samples;Min_cycle;Max_cycle;Signal;HPM_P1;HPM_P2
2022/09/21 00:00:23;;;;;;;1.30;1.00;;;;;;;6.13;100.00;99917.44;100671;1341;22885;-33
2022/09/21 00:02:49;;;;;;;6.70;3.10;;;;;;;6.05;100.00;99917.32;100659;1341;23098;-32
2022/09/21 00:05:16;;;;;;;4.60;2.30;;;;;;;6.01;100.00;99923.58;100683;1340;26494;-34
2022/09/21 00:07:42;;;;;;;4.20;2.20;;;;;;;5.96;100.00;99929.80;100715;1340;24286;-36
2022/09/21 00:10:08;;;;;;;3.40;2.90;;;;;;;5.88;100.00;99932.91;100536;1335;25384;-36
2022/09/21 00:12:34;;;;;;;2.40;1.70;;;;;;;5.85;100.00;99935.11;100627;1340;22824;-36
2022/09/21 00:14:59;;;;;;;3.00;2.20;;;;;;;5.80;100.00;99938.48;100664;1334;22745;-31
2022/09/21 00:17:25;;;;;;;4.90;2.70;;;;;;;5.75;100.00;99936.14;100638;1334;22841;-34
2022/09/21 00:19:51;;;;;;;2.80;2.30;;;;;;;5.70;100.00;99938.18;100459;1337;25806;-34
2022/09/21 00:22:18;;;;;;;3.60;2.70;;;;;;;5.69;100.00;99938.19;100658;1334;22758;-32
2022/09/21 00:24:44;;;;;;;6.10;3.30;;;;;;;5.66;100.00;99934.39;100666;1335;22894;-36
2022/09/21 00:27:09;;;;;;;2.40;1.50;;;;;;;5.64;100.00;99936.70;100528;1326;22581;-36
2022/09/21 00:29:36;;;;;;;3.10;2.80;;;;;;;5.67;100.00;99942.30;100657;1340;22576;-36
2022/09/21 00:32:01;;;;;;;3.30;2.20;;;;;;;5.64;100.00;99941.48;100674;1334;22925;-34
2022/09/21 00:34:27;;;;;;;2.90;2.20;;;;;;;5.65;100.00;99944.42;100589;1342;22512;-33
2022/09/21 00:36:52;;;;;;;6.10;1.70;;;;;;;5.65;100.00;99948.91;100660;1341;23031;-33
2022/09/21 00:39:18;;;;;;;4.00;2.70;;;;;;;5.67;100.00;99950.09;100669;1337;22510;-33
2022/09/21 00:41:44;;;;;;;4.70;1.80;;;;;;;5.66;100.00;99948.60;100678;1334;22784;-36
2022/09/21 00:44:16;;;;;;;4.50;2.50;;;;;;;5.67;100.00;99943.73;100477;1334;23011;-33
2022/09/21 00:46:42;;;;;;;2.50;2.30;;;;;;;5.67;100.00;99947.06;100648;1338;25459;-30
2022/09/21 00:49:08;;;;;;;3.10;2.40;;;;;;;5.65;100.00;99948.34;100643;1342;22875;-31
2022/09/21 00:51:35;;;;;;;3.80;1.60;;;;;;;5.63;100.00;99949.77;100252;1334;565394;-36
2022/09/21 00:54:03;;;;;;;2.20;1.60;;;;;;;5.59;100.00;99951.58;100637;1335;22748;-36
2022/09/21 00:56:28;;;;;;;3.70;2.60;;;;;;;5.57;100.00;99951.36;100692;1341;24306;-33
2022/09/21 00:58:54;;;;;;;3.60;2.50;;;;;;;5.53;100.00;99948.73;100586;1341;22524;-36
2022/09/21 01:01:19;;;;;;;3.50;2.10;;;;;;;5.51;100.00;99951.61;100596;1341;24417;-35
2022/09/21 01:03:46;;;;;;;4.80;2.90;;;;;;;5.48;100.00;99956.34;100664;1337;22758;-33
2022/09/21 01:06:12;;;;;;;3.20;2.20;;;;;;;5.41;100.00;99962.91;100588;1326;22507;-32
2022/09/21 01:08:39;;;;;;;3.30;2.10;;;;;;;5.40;100.00;99969.05;100677;1342;24352;-36
2022/09/21 01:11:14;;;;;;;7.00;2.80;;;;;;;5.36;100.00;99970.62;100695;1337;23035;-36
2022/09/21 01:13:45;;;;;;;6.80;1.40;;;;;;;5.37;100.00;99974.13;100660;1334;24468;-33
2022/09/21 01:16:14;;;;;;;5.60;3.00;;;;;;;5.38;100.00;99980.45;100652;1342;24324;-35
2022/09/21 01:18:44;;;;;;;6.80;3.30;;;;;;;5.35;100.00;99981.05;100690;1342;23153;-33
2022/09/21 01:21:16;;;;;;;6.00;2.10;;;;;;;5.32;100.00;99985.09;100644;1340;23206;-33
2022/09/21 01:23:53;;;;;;;3.60;2.60;;;;;;;5.29;100.00;99986.45;100657;1341;24414;-32
2022/09/21 01:26:22;;;;;;;3.80;2.60;;;;;;;5.24;100.00;99993.31;100656;1338;23057;-31
2022/09/21 01:28:55;;;;;;;3.40;1.90;;;;;;;5.20;100.00;99996.37;100667;1337;23212;-36
2022/09/21 01:31:23;;;;;;;6.10;3.60;;;;;;;5.18;100.00;99998.21;100645;1343;24377;-36
2022/09/21 01:33:52;;;;;;;6.50;3.50;;;;;;;5.16;100.00;99995.84;100640;1342;22758;-31
2022/09/21 01:36:19;;;;;;;3.50;2.30;;;;;;;5.13;100.00;99998.41;100671;1342;22525;-37
2022/09/21 01:38:48;;;;;;;2.40;1.90;;;;;;;5.12;100.00;99999.09;100731;1332;23005;-31
2022/09/21 01:41:17;;;;;;;8.50;2.70;;;;;;;5.11;100.00;99995.95;100702;1324;24327;-36
2022/09/21 01:43:45;;;;;;;4.20;3.20;;;;;;;5.10;100.00;99998.02;100739;1342;22569;-35
2022/09/21 01:46:12;;;;;;;5.10;3.80;;;;;;;5.06;100.00;100000.17;100691;1334;23122;-35
2022/09/21 01:48:39;;;;;;;4.90;2.20;;;;;;;5.10;100.00;99997.16;100516;1337;22890;-35
2022/09/21 01:51:06;;;;;;;4.00;3.20;;;;;;;5.08;100.00;100004.77;100647;1335;22736;-32
2022/09/21 01:53:36;;;;;;;3.50;2.80;;;;;;;5.08;100.00;100004.44;100611;1344;22758;-31
2022/09/21 01:56:06;;;;;;;6.50;3.80;;;;;;;5.05;100.00;100005.24;100674;1343;24373;-35
2022/09/21 01:58:35;;;;;;;4.50;2.90;;;;;;;5.05;100.00;100010.01;100645;1337;23284;-35
2022/09/21 02:01:00;;;;;;;8.90;1.90;;;;;;;5.01;100.00;100013.52;100674;1341;22887;-31
2022/09/21 02:03:31;;;;;;;14.10;3.10;;;;;;;4.98;100.00;100016.94;100578;1345;22999;-32
2022/09/21 02:05:56;;;;;;;6.10;3.90;;;;;;;4.98;100.00;100020.44;100696;1324;22580;-32
2022/09/21 02:08:25;;;;;;;1.30;1.10;;;;;;;5.01;100.00;100023.96;100578;1345;22510;-35
2022/09/21 02:10:51;;;;;;;4.10;3.30;;;;;;;5.02;100.00;100025.05;100671;1341;23103;-35
2022/09/21 02:13:17;;;;;;;5.60;4.40;;;;;;;5.02;100.00;100030.17;100672;1334;22850;-35
2022/09/21 02:15:50;;;;;;;5.70;4.10;;;;;;;5.05;100.00;100031.02;100633;1339;24452;-35
2022/09/21 02:18:28;;;;;;;5.60;3.90;;;;;;;5.06;100.00;100033.88;100715;1343;22519;-32
2022/09/21 02:20:56;;;;;;;36.00;5.40;;;;;;;5.12;100.00;100037.93;100689;1339;22519;-32
2022/09/21 02:23:25;;;;;;;4.10;3.70;;;;;;;5.15;100.00;100041.73;100525;1337;25344;-32
2022/09/21 02:25:56;;;;;;;6.50;3.90;;;;;;;5.23;100.00;100047.09;100649;1341;22516;-32
2022/09/21 02:28:26;;;;;;;7.40;6.30;;;;;;;5.32;100.00;100054.53;100665;1345;22460;-32
2022/09/21 02:30:56;;;;;;;6.80;4.20;;;;;;;5.37;100.00;100058.29;100719;1342;23202;-35
2022/09/21 02:33:26;;;;;;;7.00;5.70;;;;;;;5.46;100.00;100063.29;100691;1341;23250;-31
2022/09/21 02:35:54;;;;;;;5.60;4.90;;;;;;;5.43;100.00;100062.31;100668;1345;23123;-32
2022/09/21 02:38:25;;;;;;;4.70;4.20;;;;;;;5.53;100.00;100071.13;100637;1343;24494;-32
2022/09/21 02:40:53;;;;;;;6.10;4.30;;;;;;;5.55;100.00;100079.13;100708;1341;22734;-35
2022/09/21 02:43:26;;;;;;;11.40;8.40;;;;;;;5.62;100.00;100081.95;100705;1333;23100;-32
2022/09/21 02:45:55;;;;;;;13.60;6.90;;;;;;;5.71;100.00;100090.02;100564;1346;25599;-32
2022/09/21 02:48:25;;;;;;;11.60;8.60;;;;;;;5.75;100.00;100095.49;100721;1343;22760;-35
2022/09/21 02:50:53;;;;;;;10.80;7.40;;;;;;;5.80;100.00;100104.63;100639;1345;24386;-35
2022/09/21 02:53:21;;;;;;;15.80;10.20;;;;;;;5.85;100.00;100110.75;100528;1343;22915;-35
2022/09/21 02:55:50;;;;;;;13.50;9.20;;;;;;;5.89;100.00;100119.91;100650;1337;24453;-35
2022/09/21 02:58:16;;;;;;;10.90;8.20;;;;;;;5.93;100.00;100128.28;100635;1335;22801;-35
2022/09/21 03:00:42;;;;;;;12.40;8.30;;;;;;;5.95;100.00;100132.71;100654;1337;22747;-32
2022/09/21 03:03:16;;;;;;;15.30;8.30;;;;;;;5.95;100.00;100141.91;100644;1341;22885;-35
2022/09/21 03:05:42;;;;;;;;;;;;;;;5.96;100.00;100145.57;100610;1345;23229;-33
2022/09/21 03:08:07;;;;;;;5.70;5.00;;;;;;;6.00;100.00;100153.68;100652;1337;24359;-36
2022/09/21 03:10:34;;;;;;;5.10;4.10;;;;;;;5.97;100.00;100160.88;100605;1337;23111;-32
2022/09/21 03:13:00;;;;;;;12.20;8.20;;;;;;;5.95;100.00;100164.13;100604;1337;23227;-33
2022/09/21 03:15:26;;;;;;;10.60;7.80;;;;;;;5.95;100.00;100162.88;100539;1340;22797;-34
2022/09/21 03:17:52;;;;;;;17.00;8.90;;;;;;;5.97;100.00;100170.54;100647;1341;24391;-36
2022/09/21 03:20:17;;;;;;;16.20;7.80;;;;;;;6.01;100.00;100173.33;100644;1346;23043;-35
2022/09/21 03:22:43;;;;;;;12.80;4.40;;;;;;;6.08;100.00;100174.29;100619;1340;22872;-32
2022/09/21 03:25:11;;;;;;;20.50;8.50;;;;;;;6.03;100.00;100174.55;100565;1339;22748;-35
2022/09/21 03:27:36;;;;;;;11.20;6.80;;;;;;;5.98;100.00;100178.45;100543;1344;22901;-32
2022/09/21 03:30:02;;;;;;;12.50;8.50;;;;;;;6.05;100.00;100181.52;100630;1337;24369;-35
2022/09/21 03:32:28;;;;;;;11.60;7.20;;;;;;;6.06;100.00;100187.42;100646;1334;23066;-35
2022/09/21 03:34:53;;;;;;;10.70;7.50;;;;;;;6.07;100.00;100193.23;100676;1345;23239;-35
2022/09/21 03:37:19;;;;;;;42.70;9.90;;;;;;;6.11;100.00;100194.09;100677;1343;24564;-33
2022/09/21 03:39:46;;;;;;;7.60;6.00;;;;;;;6.09;100.00;100193.16;100541;1343;24423;-36
2022/09/21 03:42:12;;;;;;;24.10;8.70;;;;;;;6.14;100.00;100190.11;100645;1345;24372;-32
2022/09/21 03:44:40;;;;;;;7.00;5.20;;;;;;;6.19;100.00;100192.47;100614;1345;26503;-36
2022/09/21 03:47:06;;;;;;;30.50;7.80;;;;;;;6.16;100.00;100196.24;100672;1345;23204;-33
2022/09/21 03:49:33;;;;;;;6.40;4.50;;;;;;;6.13;100.00;100194.94;100708;1334;24359;-36
2022/09/21 03:51:58;;;;;;;5.90;4.80;;;;;;;6.18;100.00;100196.23;100672;1335;22884;-36
2022/09/21 03:54:24;;;;;;;11.90;8.20;;;;;;;6.15;100.00;100198.19;100672;1344;23214;-33
2022/09/21 03:56:50;;;;;;;5.30;3.80;;;;;;;6.21;100.00;100197.41;100661;1337;24826;-33
2022/09/21 03:59:16;;;;;;;10.90;5.70;;;;;;;6.25;100.00;100201.05;100642;1337;22965;-36
2022/09/21 04:01:42;;;;;;;7.60;5.10;;;;;;;6.24;100.00;100206.00;100702;1342;23001;-33
2022/09/21 04:04:09;;;;;;;18.00;9.00;;;;;;;6.17;100.00;100206.62;100601;1342;22508;-36
2022/09/21 04:06:35;;;;;;;9.30;6.30;;;;;;;6.26;100.00;100208.96;100687;1340;23262;-31
2022/09/21 04:09:02;;;;;;;;;;;;;;;6.22;100.00;100213.46;100677;1337;22757;-35
2022/09/21 04:11:28;;;;;;;12.70;6.60;;;;;;;6.23;100.00;100217.94;100612;1337;24409;-32
2022/09/21 04:13:55;;;;;;;14.30;6.30;;;;;;;6.30;100.00;100218.77;100443;1339;22518;-32
2022/09/21 04:16:23;;;;;;;9.10;5.20;;;;;;;6.28;100.00;100222.15;100658;1335;23092;-35
2022/09/21 04:18:49;;;;;;;9.00;6.20;;;;;;;6.30;100.00;100224.78;100692;1334;24350;-35
2022/09/21 04:21:16;;;;;;;13.60;6.20;;;;;;;6.39;100.00;100230.15;100550;1340;22897;-32
2022/09/21 04:23:42;;;;;;;5.20;4.10;;;;;;;6.43;100.00;100231.92;100700;1341;22494;-33
2022/09/21 04:26:19;;;;;;;3.40;2.80;;;;;;;6.41;100.00;100231.18;100698;1342;24333;-33
2022/09/21 04:28:44;;;;;;;9.80;6.30;;;;;;;6.46;100.00;100233.70;100581;1347;23146;-33
2022/09/21 04:31:10;;;;;;;10.80;6.10;;;;;;;6.52;100.00;100229.59;100495;1342;24474;-36
2022/09/21 04:33:35;;;;;;;7.10;4.90;;;;;;;6.59;100.00;100227.84;100681;1345;24446;-36
2022/09/21 04:36:01;;;;;;;9.30;6.30;;;;;;;6.64;100.00;100233.41;100654;1341;22735;-33
2022/09/21 04:38:27;;;;;;;8.00;6.00;;;;;;;6.64;100.00;100235.34;100468;1341;24423;-36
2022/09/21 04:40:55;;;;;;;14.60;7.80;;;;;;;6.68;100.00;100237.05;100626;1343;24558;-33
2022/09/21 04:43:21;;;;;;;16.20;7.80;;;;;;;6.62;100.00;100231.45;100703;1331;22526;-36
2022/09/21 04:45:47;;;;;;;11.40;5.30;;;;;;;6.59;100.00;100231.95;100633;1342;22747;-33
2022/09/21 04:48:13;;;;;;;8.40;4.70;;;;;;;6.66;100.00;100230.87;100688;1337;22712;-33
2022/09/21 04:50:38;;;;;;;16.20;11.10;;;;;;;6.66;100.00;100234.59;100662;1334;24337;-32
2022/09/21 04:53:04;;;;;;;9.70;8.00;;;;;;;6.66;100.00;100236.02;100661;1335;23018;-32
2022/09/21 04:55:30;;;;;;;17.80;7.20;;;;;;;6.68;100.00;100237.45;100641;1343;23203;-35
2022/09/21 04:57:56;;;;;;;9.10;5.90;;;;;;;6.71;100.00;100239.75;100635;1342;22744;-35
2022/09/21 05:00:22;;;;;;;12.20;7.30;;;;;;;6.68;100.00;100236.38;100625;1342;22509;-33
2022/09/21 05:02:47;;;;;;;12.10;6.70;;;;;;;6.71;100.00;100238.34;100615;1345;22932;-35
2022/09/21 05:05:13;;;;;;;16.20;9.70;;;;;;;6.73;100.00;100237.86;100601;1337;24370;-35
2022/09/21 05:07:38;;;;;;;14.00;10.10;;;;;;;6.69;100.00;100241.44;100678;1340;22925;-35
2022/09/21 05:10:04;;;;;;;7.70;5.50;;;;;;;6.73;100.00;100244.11;100525;1340;24219;-35
2022/09/21 05:12:31;;;;;;;16.90;8.00;;;;;;;6.80;100.00;100246.94;100576;1336;23049;-35
2022/09/21 05:14:57;;;;;;;9.60;6.60;;;;;;;6.75;100.00;100247.45;100695;1326;22761;-36
2022/09/21 05:17:22;;;;;;;16.80;10.00;;;;;;;6.83;100.00;100254.30;100653;1337;23191;-33
2022/09/21 05:19:49;;;;;;;12.00;8.90;;;;;;;6.92;100.00;100257.88;100663;1343;23219;-36
2022/09/21 05:22:15;;;;;;;5.80;3.70;;;;;;;6.84;100.00;100261.64;100641;1341;23088;-35
2022/09/21 05:24:41;;;;;;;11.30;8.70;;;;;;;6.93;100.00;100265.60;100678;1340;22711;-33
2022/09/21 05:27:06;;;;;;;13.00;8.30;;;;;;;6.91;100.00;100267.55;100658;1341;22529;-33
2022/09/21 05:29:32;;;;;;;11.50;6.20;;;;;;;6.93;100.00;100270.88;100630;1340;22748;-36
2022/09/21 05:32:03;;;;;;;14.10;6.50;;;;;;;6.98;100.00;100271.16;100623;1335;22725;-36
2022/09/21 05:34:32;;;;;;;7.40;6.40;;;;;;;6.92;100.00;100270.99;100658;1342;22557;-33
2022/09/21 05:37:02;;;;;;;15.90;9.40;;;;;;;6.97;100.00;100278.73;100680;1345;22901;-36
2022/09/21 05:39:28;;;;;;;11.70;7.90;;;;;;;7.03;100.00;100280.07;100701;1342;24494;-36
2022/09/21 05:41:54;;;;;;;15.00;6.20;;;;;;;7.04;100.00;100282.14;100640;1338;24449;-36
2022/09/21 05:44:21;;;;;;;16.80;8.50;;;;;;;7.08;100.00;100288.02;100680;1342;24464;-33
2022/09/21 05:46:49;;;;;;;12.70;7.90;;;;;;;7.08;100.00;100290.80;100656;1342;24204;-35
2022/09/21 05:49:20;;;;;;;6.90;4.60;;;;;;;7.13;100.00;100289.41;100633;1342;25405;-33
2022/09/21 05:51:49;;;;;;;9.80;6.60;;;;;;;7.17;100.00;100290.79;100661;1342;22983;-33
2022/09/21 05:54:18;;;;;;;15.40;7.90;;;;;;;7.24;100.00;100294.89;100623;1342;23139;-33
2022/09/21 05:56:50;;;;;;;3.90;2.30;;;;;;;7.28;100.00;100292.08;100674;1340;24494;-33
2022/09/21 05:59:23;;;;;;;12.20;8.80;;;;;;;7.30;100.00;100293.10;100651;1342;23938;-34
2022/09/21 06:01:55;;;;;;;9.20;5.80;;;;;;;7.31;100.00;100294.91;100647;1329;24292;-36
2022/09/21 06:04:21;;;;;;;8.40;4.50;;;;;;;7.34;100.00;100291.58;100665;1334;24446;-34
2022/09/21 06:06:46;;;;;;;9.20;6.30;;;;;;;7.39;100.00;100291.64;100715;1334;22702;-36
2022/09/21 06:09:12;;;;;;;14.70;9.60;;;;;;;7.37;100.00;100293.92;100641;1342;22510;-32
2022/09/21 06:11:37;;;;;;;13.80;9.10;;;;;;;7.40;100.00;100289.91;100637;1334;22511;-32
2022/09/21 06:14:03;;;;;;;15.30;7.60;;;;;;;7.41;100.00;100292.48;100649;1340;22499;-32
2022/09/21 06:16:35;;;;;;;13.70;9.10;;;;;;;7.39;100.00;100291.61;100625;1342;26462;-35
2022/09/21 06:19:01;;;;;;;21.30;3.60;;;;;;;7.42;100.00;100290.40;100667;1338;25277;-32
2022/09/21 06:21:26;;;;;;;7.10;4.80;;;;;;;7.55;100.00;100284.92;100671;1342;22893;-35
2022/09/21 06:23:52;;;;;;;12.20;7.50;;;;;;;7.54;100.00;100286.08;100617;1341;22770;-32
2022/09/21 06:26:18;;;;;;;22.10;9.50;;;;;;;7.47;100.00;100288.53;100659;1334;24263;-35
2022/09/21 06:28:43;;;;;;;15.70;8.10;;;;;;;7.46;100.00;100288.41;100630;1341;22748;-35
2022/09/21 06:31:09;;;;;;;8.90;5.60;;;;;;;7.57;100.00;100285.23;100662;1342;23096;-33
2022/09/21 06:33:36;;;;;;;12.10;6.70;;;;;;;7.58;100.00;100282.06;100598;1342;22745;-36
2022/09/21 06:36:02;;;;;;;9.70;6.30;;;;;;;7.60;100.00;100276.14;100638;1341;23096;-34
2022/09/21 06:38:28;;;;;;;6.50;5.00;;;;;;;7.66;100.00;100266.77;100661;1341;24359;-33
2022/09/21 06:40:54;;;;;;;7.70;5.10;;;;;;;7.77;100.00;100260.35;100638;1341;22711;-34
2022/09/21 06:43:20;;;;;;;9.20;5.60;;;;;;;7.69;100.00;100263.50;100667;1342;24364;-37
2022/09/21 06:45:52;;;;;;;13.00;7.50;;;;;;;7.76;100.00;100268.59;100635;1331;22894;-35
2022/09/21 06:48:18;;;;;;;5.30;4.20;;;;;;;7.88;100.00;100274.69;100693;1342;22643;-36
2022/09/21 06:50:44;;;;;;;9.30;6.30;;;;;;;7.93;100.00;100276.70;100615;1340;23103;-36
2022/09/21 06:53:09;;;;;;;10.50;6.00;;;;;;;7.93;100.00;100270.76;100659;1325;24382;-32
2022/09/21 06:55:35;;;;;;;6.30;5.30;;;;;;;7.82;100.00;100266.27;100659;1342;25159;-35
2022/09/21 06:58:01;;;;;;;7.50;3.80;;;;;;;7.85;100.00;100265.61;100645;1334;26004;-37
2022/09/21 07:00:27;;;;;;;7.20;4.50;;;;;;;7.91;100.00;100265.08;100502;1341;22863;-34
2022/09/21 07:02:53;;;;;;;9.10;6.50;;;;;;;7.98;100.00;100264.76;100658;1334;24242;-34
2022/09/21 07:05:18;;;;;;;9.90;7.80;;;;;;;8.02;100.00;100271.90;100595;1340;25614;-36
2022/09/21 07:07:44;;;;;;;18.00;9.20;;;;;;;8.13;100.00;100273.00;100653;1340;22699;-37
2022/09/21 07:10:10;;;;;;;10.70;6.50;;;;;;;8.27;100.00;100276.88;100626;1335;23229;-34
2022/09/21 07:12:35;;;;;;;8.20;6.30;;;;;;;8.28;100.00;100265.04;100676;1334;22888;-36
2022/09/21 07:15:02;;;;;;;8.10;5.70;;;;;;;8.34;100.00;100259.75;100620;1340;22748;-34
2022/09/21 07:17:31;;;;;;;7.70;3.80;;;;;;;8.35;100.00;100251.23;100630;1324;24369;-34
2022/09/21 07:19:57;;;;;;;8.70;6.50;;;;;;;8.44;100.00;100246.13;100665;1340;23536;-33
2022/09/21 07:22:23;;;;;;;7.90;6.40;;;;;;;8.45;100.00;100234.92;100610;1341;24300;-34
2022/09/21 07:24:48;;;;;;;;;;;;;;;8.52;100.00;100228.80;100689;1342;25251;-34
2022/09/21 07:27:14;;;;;;;14.20;5.90;;;;;;;8.66;100.00;100223.04;100664;1324;22710;-36
2022/09/21 07:29:40;;;;;;;6.40;3.50;;;;;;;8.71;100.00;100209.45;100467;1342;22917;-33
2022/09/21 07:32:05;;;;;;;2.50;2.00;;;;;;;8.76;100.00;100202.27;100525;1342;23465;-33
2022/09/21 07:34:35;;;;;;;8.40;6.90;;;;;;;8.84;100.00;100194.27;100650;1341;22751;-33
2022/09/21 07:37:02;;;;;;;6.40;5.00;;;;;;;8.80;100.00;100178.70;100670;1342;25210;-36
2022/09/21 07:39:28;;;;;;;7.40;6.40;;;;;;;8.87;100.00;100173.48;100698;1342;22882;-33
2022/09/21 07:41:54;;;;;;;7.60;5.50;;;;;;;8.98;100.00;100169.01;100670;1341;22881;-36
2022/09/21 07:44:21;;;;;;;7.80;5.30;;;;;;;9.04;100.00;100156.38;100707;1342;22554;-34
2022/09/21 07:46:48;;;;;;;9.50;7.40;;;;;;;9.10;100.00;100145.89;100648;1342;24338;-33
2022/09/21 07:49:14;;;;;;;8.00;4.50;;;;;;;9.20;100.00;100139.15;100655;1342;22536;-33
2022/09/21 07:51:40;;;;;;;6.00;4.50;;;;;;;9.28;100.00;100135.65;100687;1342;23111;-34
2022/09/21 07:54:05;;;;;;;6.60;5.30;;;;;;;9.31;100.00;100130.21;100674;1342;22760;-36
2022/09/21 07:56:31;;;;;;;7.10;6.20;;;;;;;9.38;100.00;100125.67;100667;1341;24379;-33
2022/09/21 08:01:26;;;;;;;6.60;4.90;;;;;;;9.40;100.00;100115.78;100623;1340;22974;-36
2022/09/21 08:03:53;;;;;;;12.70;6.20;;;;;;;9.56;100.00;100113.16;100649;1339;23232;-36
2022/09/21 08:06:19;;;;;;;5.80;4.60;;;;;;;9.45;100.00;100102.56;100611;1342;22730;-37
2022/09/21 08:08:46;;;;;;;6.40;4.70;;;;;;;9.54;100.00;100107.10;100691;1324;22875;-37
2022/09/21 08:11:13;;;;;;;10.20;6.60;;;;;;;9.69;100.00;100107.89;100695;1340;22523;-34
2022/09/21 08:13:39;;;;;;;5.90;4.70;;;;;;;9.76;100.00;100108.53;100536;1331;25370;-35
2022/09/21 08:16:05;;;;;;;6.80;5.30;;;;;;;9.83;100.00;100109.34;100692;1334;23121;-32
2022/09/21 08:18:30;;;;;;;5.00;3.90;;;;;;;9.93;100.00;100108.63;100663;1342;24359;-37
2022/09/21 08:20:57;;;;;;;9.50;8.00;;;;;;;9.94;100.00;100106.52;100529;1340;22770;-33
2022/09/21 08:23:23;;;;;;;6.40;5.50;;;;;;;10.01;100.00;100103.86;100702;1339;22721;-37
2022/09/21 08:25:49;;;;;;;7.70;5.70;;;;;;;9.99;100.00;100100.67;100682;1340;24943;-36
2022/09/21 08:28:15;;;;;;;4.60;3.20;;;;;;;10.02;100.00;100103.41;100710;1341;23046;-36
2022/09/21 08:30:41;;;;;;;4.30;3.80;;;;;;;10.12;100.00;100101.23;100715;1342;22511;-33
2022/09/21 08:33:07;;;;;;;9.00;6.60;;;;;;;10.05;100.00;100102.92;100687;1334;23206;-34
2022/09/21 08:35:35;;;;;;;3.60;3.30;;;;;;;10.06;100.00;100101.72;100689;1334;23330;-33
2022/09/21 08:38:01;;;;;;;7.70;6.80;;;;;;;10.13;100.00;100098.92;100613;1332;24414;-33
2022/09/21 08:40:27;;;;;;;5.90;5.10;;;;;;;10.10;100.00;100101.23;100720;1341;22541;-34
2022/09/21 08:42:56;;;;;;;6.60;5.90;;;;;;;10.14;100.00;100104.77;100685;1337;22758;-34
2022/09/21 08:45:22;;;;;;;5.80;4.90;;;;;;;10.27;100.00;100105.08;100679;1337;22509;-36
2022/09/21 08:47:49;;;;;;;7.30;4.60;;;;;;;10.27;100.00;100104.64;100631;1339;23001;-33
2022/09/21 08:50:25;;;;;;;6.00;4.40;;;;;;;10.34;100.00;100102.00;100315;1327;610025;-36
2022/09/21 08:52:51;;;;;;;5.70;4.50;;;;;;;10.35;100.00;100101.04;100622;1341;23052;-32
2022/09/21 08:55:18;;;;;;;5.10;4.40;;;;;;;10.50;100.00;100099.12;100536;1340;22760;-32
2022/09/21 08:57:43;;;;;;;3.30;2.50;;;;;;;10.68;100.00;100091.88;100668;1340;23345;-35
2022/09/21 09:00:13;;;;;;;2.80;1.50;;;;;;;10.77;100.00;100090.13;100744;1342;22712;-38
2022/09/21 09:02:51;;;;;;;0.80;0.80;;;;;;;10.93;100.00;100088.70;100567;1334;24484;-33
2022/09/21 09:05:22;;;;;;;3.90;3.30;;;;;;;10.90;100.00;100086.76;100621;1336;22729;-36
2022/09/21 09:07:58;;;;;;;14.00;4.80;;;;;;;11.08;100.00;100088.78;100678;1342;24495;-33
2022/09/21 09:10:32;;;;;;;1.40;1.20;;;;;;;11.24;100.00;100087.77;100687;1342;22524;-35
2022/09/21 09:13:00;;;;;;;6.00;4.20;;;;;;;11.34;100.00;100086.31;100633;1342;24454;-34
2022/09/21 09:15:36;;;;;;;4.70;4.20;;;;;;;11.36;100.00;100085.52;100698;1342;22869;-37
2022/09/21 09:18:08;;;;;;;6.20;4.00;;;;;;;11.49;100.00;100083.26;100561;1334;22748;-37
2022/09/21 09:20:35;;;;;;;4.60;4.20;;;;;;;11.60;100.00;100083.67;100769;1342;22775;-37
2022/09/21 09:23:08;;;;;;;3.50;3.00;;;;;;;11.57;100.00;100080.84;100653;1334;22922;-37
2022/09/21 09:25:36;;;;;;;4.40;3.40;;;;;;;11.76;100.00;100088.02;100577;1340;22764;-34
2022/09/21 09:28:10;;;;;;;3.90;2.80;;;;;;;11.84;100.00;100084.58;100686;1341;24429;-37
2022/09/21 09:30:36;;;;;;;4.00;2.90;;;;;;;11.79;100.00;100082.83;100687;1341;24310;-37
2022/09/21 09:33:07;;;;;;;6.80;3.40;;;;;;;11.77;100.00;100081.73;100675;1333;23221;-37
2022/09/21 09:35:36;;;;;;;3.20;2.70;;;;;;;11.83;100.00;100086.87;100667;1342;22657;-37
2022/09/21 09:38:10;;;;;;;4.30;3.20;;;;;;;11.75;100.00;100086.41;100758;1340;23096;-34
2022/09/21 09:40:42;;;;;;;6.70;3.90;;;;;;;11.84;100.00;100089.61;100666;1342;25364;-37
2022/09/21 09:43:13;;;;;;;4.70;3.90;;;;;;;11.92;100.00;100084.84;100627;1340;22748;-37
2022/09/21 09:45:45;;;;;;;3.90;3.30;;;;;;;12.02;100.00;100085.04;100706;1342;23883;-35
2022/09/21 09:48:15;;;;;;;4.50;3.80;;;;;;;11.97;100.00;100081.27;100692;1334;22604;-34
2022/09/21 09:50:41;;;;;;;4.20;3.70;;;;;;;11.85;100.00;100083.41;100656;1335;24510;-37
2022/09/21 09:53:11;;;;;;;5.40;4.20;;;;;;;11.98;100.00;100080.85;100683;1337;22940;-37
2022/09/21 09:55:39;;;;;;;4.80;4.10;;;;;;;12.18;100.00;100082.20;100706;1341;22496;-37
2022/09/21 09:58:06;;;;;;;5.20;2.80;;;;;;;12.55;100.00;100082.00;100690;1341;23103;-38
2022/09/21 10:00:32;;;;;;;6.30;3.50;;;;;;;12.73;100.00;100079.52;100643;1334;23020;-34
2022/09/21 10:02:57;;;;;;;3.70;2.40;;;;;;;12.79;100.00;100076.71;100640;1337;25306;-36
2022/09/21 10:05:29;;;;;;;3.80;2.50;;;;;;;12.91;99.78;100073.23;100661;1337;24378;-32
2022/09/21 10:07:55;;;;;;;2.70;1.90;;;;;;;13.06;99.64;100071.48;100661;1342;23096;-37
2022/09/21 10:10:21;;;;;;;3.10;2.60;;;;;;;13.21;98.95;100066.85;100601;1330;22736;-34
2022/09/21 10:12:47;;;;;;;6.20;2.10;;;;;;;13.28;99.35;100062.70;100643;1340;24865;-34
2022/09/21 10:15:13;;;;;;;2.70;1.90;;;;;;;13.34;97.22;100063.05;100651;1341;23087;-34
2022/09/21 10:17:40;;;;;;;1.50;1.30;;;;;;;13.66;94.82;100061.17;100636;1340;22784;-37
2022/09/21 10:20:07;;;;;;;2.60;1.60;;;;;;;13.92;94.04;100061.55;100569;1342;22731;-32
2022/09/21 10:22:32;;;;;;;1.30;1.20;;;;;;;14.07;91.31;100063.09;100615;1340;22747;-32
2022/09/21 10:24:58;;;;;;;1.60;1.30;;;;;;;14.22;90.93;100061.55;100693;1334;23159;-37
2022/09/21 10:27:26;;;;;;;4.60;1.40;;;;;;;14.19;87.23;100062.70;100525;1342;23343;-35
2022/09/21 10:29:52;;;;;;;1.30;1.00;;;;;;;13.92;85.68;100061.46;100743;1342;22872;-37
2022/09/21 10:32:20;;;;;;;3.30;1.30;;;;;;;13.58;86.97;100056.89;100643;1341;22507;-33
2022/09/21 10:34:53;;;;;;;3.20;2.40;;;;;;;13.72;89.61;100057.72;100621;1335;22835;-37
2022/09/21 10:37:22;;;;;;;;;;;;;;;13.78;90.23;100061.52;100646;1342;25205;-33
2022/09/21 10:39:49;;;;;;;9.50;2.20;;;;;;;13.63;89.69;100064.15;100678;1341;22569;-34
2022/09/21 10:42:15;;;;;;;2.10;1.30;;;;;;;13.49;89.94;100065.59;100660;1340;22761;-37
2022/09/21 10:44:45;;;;;;;3.50;2.70;;;;;;;13.17;92.30;100062.08;100707;1333;23166;-38
2022/09/21 10:47:14;;;;;;;3.30;1.80;;;;;;;12.98;95.06;100064.16;100677;1331;22903;-34
2022/09/21 10:49:44;;;;;;;1.80;1.70;;;;;;;12.93;95.29;100066.09;100680;1341;24496;-37
2022/09/21 10:52:09;;;;;;;3.30;2.60;;;;;;;12.94;95.78;100058.98;100448;1342;23214;-37
2022/09/21 10:54:35;;;;;;;1.40;1.30;;;;;;;13.20;97.47;100051.34;100634;1334;22745;-37
2022/09/21 10:57:03;;;;;;;1.90;1.40;;;;;;;13.73;93.51;100050.91;100702;1325;23002;-34
2022/09/21 10:59:30;;;;;;;1.50;1.10;;;;;;;14.31;88.11;100048.71;100621;1342;22661;-37
2022/09/21 11:01:57;;;;;;;4.30;1.10;;;;;;;14.86;85.48;100048.05;100711;1341;23236;-37
2022/09/21 11:04:26;;;;;;;1.30;0.50;;;;;;;15.24;80.97;100040.43;100640;1342;22558;-34
2022/09/21 11:06:54;;;;;;;3.10;1.00;;;;;;;15.67;77.17;100040.29;100681;1340;24378;-37
2022/09/21 11:09:25;;;;;;;2.00;1.00;;;;;;;15.85;78.01;100033.64;100701;1335;22526;-35
2022/09/21 11:11:58;;;;;;;2.30;1.80;;;;;;;15.80;79.65;100033.91;100659;1324;22733;-35
2022/09/21 11:14:27;;;;;;;1.30;0.80;;;;;;;15.86;77.24;100032.89;100703;1325;24378;-38
2022/09/21 11:16:57;;;;;;;1.20;0.50;;;;;;;15.89;75.46;100024.83;100670;1342;25347;-35
2022/09/21 11:19:27;;;;;;;1.70;0.90;;;;;;;15.99;72.12;100033.36;100505;1340;23103;-35